createdAt,value
2022-11-04T00:00:28.631Z,10.78
2022-11-04T00:02:34.459Z,10.76
2022-11-04T00:04:36.902Z,10.76
2022-11-04T00:06:39.614Z,10.77
2022-11-04T00:08:42.227Z,10.82
2022-11-04T00:11:05.495Z,10.82
2022-11-04T00:13:07.935Z,10.73
2022-11-04T00:15:28.896Z,10.70
2022-11-04T00:18:45.669Z,10.65
2022-11-04T00:21:06.402Z,10.71
2022-11-04T00:23:27.093Z,10.74
2022-11-04T00:25:48.058Z,10.70
2022-11-04T00:28:09.256Z,10.78
2022-11-04T00:30:11.911Z,10.71
2022-11-04T00:36:38.952Z,10.67
2022-11-04T00:38:41.154Z,10.71
2022-11-04T00:40:43.705Z,10.70
2022-11-04T00:42:46.902Z,10.72
2022-11-04T00:44:49.094Z,10.70
2022-11-04T00:46:51.437Z,10.73
2022-11-04T00:48:54.470Z,10.73
2022-11-04T00:50:57.720Z,10.71
2022-11-04T00:53:03.426Z,10.75
2022-11-04T00:55:06.214Z,10.75
2022-11-04T00:57:14.399Z,10.70
2022-11-04T00:59:16.890Z,10.75
2022-11-04T01:01:20.238Z,10.75
2022-11-04T01:03:22.418Z,10.82
2022-11-04T01:05:24.740Z,10.80
2022-11-04T01:07:29.625Z,10.81
2022-11-04T01:09:31.919Z,10.83
2022-11-04T01:11:34.847Z,10.77
2022-11-04T01:14:26.787Z,10.78
2022-11-04T01:16:32.620Z,10.84
2022-11-04T01:18:35.365Z,10.81
2022-11-04T01:20:37.649Z,10.73
2022-11-04T01:22:39.893Z,10.70
2022-11-04T01:24:42.266Z,10.75
2022-11-04T01:26:44.527Z,10.73
2022-11-04T01:28:47.137Z,10.73
2022-11-04T01:30:49.695Z,10.72
2022-11-04T01:32:52.022Z,10.70
2022-11-04T01:34:54.200Z,10.66
2022-11-04T01:36:56.352Z,10.68
2022-11-04T01:38:58.771Z,10.66
2022-11-04T01:41:01.993Z,10.71
2022-11-04T01:43:04.865Z,10.70
2022-11-04T01:45:15.254Z,10.69
2022-11-04T01:47:27.128Z,10.71
2022-11-04T01:49:40.733Z,10.79
2022-11-04T01:51:49.191Z,10.85
2022-11-04T01:53:55.384Z,10.83
2022-11-04T01:56:00.810Z,10.81
2022-11-04T01:58:07.609Z,10.80
2022-11-04T02:00:11.258Z,10.84
2022-11-04T02:02:16.639Z,10.87
2022-11-04T02:04:28.582Z,10.85
2022-11-04T02:06:30.900Z,10.89
2022-11-04T02:08:34.263Z,10.88
2022-11-04T02:10:39.108Z,10.98
2022-11-04T02:12:50.013Z,10.98
2022-11-04T02:14:53.936Z,10.90
2022-11-04T02:17:19.104Z,10.88
2022-11-04T02:19:52.107Z,10.90
2022-11-04T02:22:33.299Z,10.87
2022-11-04T02:24:54.124Z,10.91
2022-11-04T02:27:04.106Z,10.90
2022-11-04T02:29:32.002Z,10.80
2022-11-04T02:32:01.156Z,10.74
2022-11-04T02:34:42.079Z,10.75
2022-11-04T02:36:57.420Z,10.75
2022-11-04T02:39:14.765Z,10.70
2022-11-04T02:41:35.572Z,10.72
2022-11-04T02:43:45.931Z,10.64
2022-11-04T02:45:51.581Z,10.63
2022-11-04T02:48:16.914Z,10.62
2022-11-04T02:50:48.014Z,10.62
2022-11-04T02:53:02.074Z,10.71
2022-11-04T02:55:11.939Z,10.72
2022-11-04T02:57:20.018Z,10.77
2022-11-04T02:59:46.425Z,10.70
2022-11-04T03:01:51.664Z,10.65
2022-11-04T03:04:01.575Z,10.70
2022-11-04T03:06:05.118Z,10.65
2022-11-04T03:08:15.855Z,10.61
2022-11-04T03:10:31.215Z,10.59
2022-11-04T03:12:40.517Z,10.62
2022-11-04T03:14:48.637Z,10.67
2022-11-04T03:17:01.779Z,10.67
2022-11-04T03:19:06.801Z,10.63
2022-11-04T03:21:11.610Z,10.69
2022-11-04T03:27:05.339Z,10.68
2022-11-04T03:29:29.319Z,10.73
2022-11-04T03:32:02.491Z,10.77
2022-11-04T03:34:05.024Z,10.82
2022-11-04T03:36:09.089Z,10.80
2022-11-04T03:38:14.369Z,10.87
2022-11-04T03:40:19.629Z,10.91
2022-11-04T03:42:24.055Z,10.92
2022-11-04T03:44:27.364Z,10.87
2022-11-04T03:46:29.987Z,10.91
2022-11-04T03:48:32.642Z,10.95
2022-11-04T03:50:42.192Z,10.96
2022-11-04T03:52:44.676Z,10.96
2022-11-04T03:54:47.833Z,10.89
2022-11-04T03:57:18.723Z,10.98
2022-11-04T03:59:23.956Z,10.96
2022-11-04T04:01:50.496Z,10.93
2022-11-04T04:03:59.968Z,11.02
2022-11-04T04:06:20.005Z,11.02
2022-11-04T04:08:46.223Z,11.07
2022-11-04T04:11:03.378Z,11.13
2022-11-04T04:13:44.726Z,11.19
2022-11-04T04:15:54.345Z,11.21
2022-11-04T04:18:01.849Z,11.22
2022-11-04T04:20:18.802Z,11.21
2022-11-04T04:22:25.394Z,11.24
2022-11-04T04:24:54.018Z,11.24
2022-11-04T04:27:15.780Z,11.27
2022-11-04T04:29:21.557Z,11.23
2022-11-04T04:31:44.378Z,11.23
2022-11-04T04:33:46.979Z,11.21
2022-11-04T04:35:57.196Z,11.24
2022-11-04T04:38:24.686Z,11.27
2022-11-04T04:40:49.645Z,11.28
2022-11-04T04:43:11.973Z,11.24
2022-11-04T04:45:29.124Z,11.18
2022-11-04T04:47:45.525Z,11.18
2022-11-04T04:49:56.102Z,11.22
2022-11-04T04:51:58.194Z,11.24
2022-11-04T04:54:00.503Z,11.20
2022-11-04T04:56:02.700Z,11.21
2022-11-04T04:58:05.194Z,11.25
2022-11-04T05:00:10.563Z,11.31
2022-11-04T05:02:12.878Z,11.28
2022-11-04T05:04:15.304Z,11.28
2022-11-04T05:06:17.861Z,11.33
2022-11-04T05:08:19.927Z,11.25
2022-11-04T05:10:22.347Z,11.28
2022-11-04T05:12:26.023Z,11.34
2022-11-04T05:14:29.140Z,11.36
2022-11-04T05:16:31.269Z,11.38
2022-11-04T05:22:28.713Z,11.54
2022-11-04T05:24:30.989Z,11.61
2022-11-04T05:26:33.139Z,11.63
2022-11-04T05:28:35.713Z,11.55
2022-11-04T05:30:37.885Z,11.57
2022-11-04T05:32:40.026Z,11.63
2022-11-04T05:34:42.501Z,11.64
2022-11-04T05:36:45.068Z,11.67
2022-11-04T05:38:51.816Z,11.68
2022-11-04T05:40:53.982Z,11.66
2022-11-04T05:42:58.409Z,11.70
2022-11-04T05:45:00.305Z,11.71
2022-11-04T05:47:02.283Z,11.69
2022-11-04T05:49:05.287Z,11.64
2022-11-04T05:51:12.978Z,11.66
2022-11-04T05:53:15.225Z,11.70
2022-11-04T05:55:17.307Z,11.70
2022-11-04T05:57:19.175Z,11.75
2022-11-04T05:59:21.082Z,11.67
2022-11-04T06:01:27.269Z,11.68
2022-11-04T06:03:29.990Z,11.71
2022-11-04T06:05:32.258Z,11.76
2022-11-04T06:07:34.220Z,11.82
2022-11-04T06:09:41.854Z,11.84
2022-11-04T06:11:43.881Z,11.87
2022-11-04T06:13:46.074Z,11.93
2022-11-04T06:15:48.017Z,11.93
2022-11-04T06:17:49.976Z,11.98
2022-11-04T06:19:51.932Z,11.99
2022-11-04T06:21:53.912Z,12.05
2022-11-04T06:23:57.701Z,12.06
2022-11-04T06:25:59.574Z,12.03
2022-11-04T06:28:04.451Z,12.13
2022-11-04T06:30:07.141Z,12.16
2022-11-04T06:32:10.898Z,12.25
2022-11-04T06:34:12.786Z,12.32
2022-11-04T06:36:16.336Z,12.38
2022-11-04T06:42:27.835Z,12.54
2022-11-04T06:44:30.013Z,12.55
2022-11-04T06:46:42.671Z,12.61
2022-11-04T06:48:45.148Z,12.69
2022-11-04T06:50:47.373Z,12.76
2022-11-04T06:52:49.422Z,12.78
2022-11-04T06:54:51.566Z,12.81
2022-11-04T06:56:53.437Z,12.87
2022-11-04T06:58:56.182Z,12.92
2022-11-04T07:00:58.381Z,12.95
2022-11-04T07:03:00.846Z,13.04
2022-11-04T07:05:03.166Z,13.11
2022-11-04T07:07:05.648Z,13.08
2022-11-04T07:09:07.626Z,13.24
2022-11-04T07:11:09.940Z,13.28
2022-11-04T07:13:11.961Z,13.38
2022-11-04T07:15:14.406Z,13.43
2022-11-04T07:17:19.308Z,13.51
2022-11-04T07:19:21.248Z,13.53
2022-11-04T07:21:25.226Z,13.60
2022-11-04T07:23:27.329Z,13.63
2022-11-04T07:25:32.995Z,13.66
2022-11-04T07:27:35.005Z,13.76
2022-11-04T07:29:37.339Z,13.84
2022-11-04T07:31:43.678Z,13.90
2022-11-04T07:33:50.138Z,13.97
2022-11-04T07:35:57.956Z,14.05
2022-11-04T07:38:00.200Z,14.05
2022-11-04T07:40:02.178Z,14.09
2022-11-04T07:42:04.231Z,14.11
2022-11-04T07:44:06.372Z,14.12
2022-11-04T07:46:12.089Z,14.13
2022-11-04T07:48:14.399Z,14.15
2022-11-04T07:50:19.133Z,14.16
2022-11-04T07:52:21.320Z,14.15
2022-11-04T07:54:23.087Z,14.24
2022-11-04T07:56:25.817Z,14.16
2022-11-04T07:58:29.485Z,14.15
2022-11-04T08:00:31.631Z,14.21
2022-11-04T08:02:35.358Z,14.24
2022-11-04T08:04:38.075Z,14.23
2022-11-04T08:06:42.343Z,14.32
2022-11-04T08:08:45.006Z,14.35
2022-11-04T08:10:53.169Z,14.38
2022-11-04T08:12:58.270Z,14.46
2022-11-04T08:15:00.907Z,14.56
2022-11-04T08:17:03.007Z,14.64
2022-11-04T08:19:05.136Z,14.72
2022-11-04T08:21:07.907Z,14.79
2022-11-04T08:23:12.428Z,14.92
2022-11-04T08:25:14.696Z,15.04
2022-11-04T08:27:17.008Z,15.10
2022-11-04T08:29:19.298Z,15.27
2022-11-04T08:31:26.989Z,15.45
2022-11-04T08:33:31.161Z,15.59
2022-11-04T08:36:02.634Z,15.71
2022-11-04T08:38:04.878Z,15.81
2022-11-04T08:40:07.840Z,15.92
2022-11-04T08:42:10.040Z,15.98
2022-11-04T08:48:06.133Z,16.11
2022-11-04T08:50:08.336Z,16.15
2022-11-04T08:52:10.271Z,16.20
2022-11-04T08:54:12.149Z,16.25
2022-11-04T08:56:29.059Z,16.30
2022-11-04T08:58:30.902Z,16.36
2022-11-04T09:00:33.195Z,16.39
2022-11-04T09:02:35.120Z,16.47
2022-11-04T09:04:37.256Z,16.52
2022-11-04T09:06:42.731Z,16.61
2022-11-04T09:08:44.877Z,16.67
2022-11-04T09:10:48.190Z,16.70
2022-11-04T09:12:50.250Z,16.76
2022-11-04T09:14:52.200Z,16.81
2022-11-04T09:16:56.718Z,16.89
2022-11-04T09:18:59.618Z,17.01
2022-11-04T09:21:06.847Z,17.06
2022-11-04T09:23:09.906Z,17.19
2022-11-04T09:25:12.135Z,17.24
2022-11-04T09:27:14.971Z,17.36
2022-11-04T09:29:17.312Z,17.44
2022-11-04T09:31:20.012Z,17.51
2022-11-04T09:33:21.950Z,17.49
2022-11-04T09:35:24.116Z,17.47
2022-11-04T09:37:25.988Z,17.53
2022-11-04T09:39:30.541Z,17.54
2022-11-04T09:41:57.468Z,17.53
2022-11-04T09:44:11.747Z,17.62
2022-11-04T09:46:14.907Z,17.68
2022-11-04T09:48:30.212Z,17.67
2022-11-04T09:50:49.544Z,17.68
2022-11-04T09:52:59.073Z,17.73
2022-11-04T09:55:15.818Z,17.75
2022-11-04T09:57:19.448Z,17.75
2022-11-04T09:59:28.979Z,17.78
2022-11-04T10:01:52.536Z,17.87
2022-11-04T10:04:25.270Z,17.90
2022-11-04T10:06:55.269Z,17.93
2022-11-04T10:09:30.260Z,17.99
2022-11-04T10:11:32.315Z,18.03
2022-11-04T10:14:15.825Z,18.01
2022-11-04T10:16:42.693Z,18.08
2022-11-04T10:19:16.554Z,18.18
2022-11-04T10:21:21.533Z,18.26
2022-11-04T10:23:29.128Z,18.25
2022-11-04T10:25:43.204Z,18.24
2022-11-04T10:27:47.379Z,18.27
2022-11-04T10:29:55.303Z,18.33
2022-11-04T10:32:00.804Z,18.37
2022-11-04T10:34:23.920Z,18.39
2022-11-04T10:36:27.410Z,18.44
2022-11-04T10:38:41.837Z,18.48
2022-11-04T10:40:48.460Z,18.49
2022-11-04T10:42:51.951Z,18.59
2022-11-04T10:44:54.025Z,18.62
2022-11-04T10:47:03.451Z,18.66
2022-11-04T10:49:29.815Z,18.69
2022-11-04T10:54:54.154Z,18.70
2022-11-04T10:56:57.261Z,18.71
2022-11-04T10:59:20.006Z,18.74
2022-11-04T11:01:26.202Z,18.81
2022-11-04T11:03:33.745Z,18.85
2022-11-04T11:05:35.871Z,18.88
2022-11-04T11:07:38.381Z,18.90
2022-11-04T11:09:54.012Z,18.94
2022-11-04T11:12:36.328Z,19.01
2022-11-04T11:14:28.869Z,19.10
2022-11-04T11:16:32.067Z,19.15
2022-11-04T11:18:34.258Z,19.19
2022-11-04T11:21:39.299Z,19.19
2022-11-04T11:23:54.752Z,19.18
2022-11-04T11:25:56.753Z,19.26
2022-11-04T11:28:01.693Z,19.32
2022-11-04T11:30:04.211Z,19.38
2022-11-04T11:32:22.920Z,19.43
2022-11-04T11:34:34.898Z,19.49
2022-11-04T11:36:38.932Z,19.55
2022-11-04T11:39:28.187Z,19.58
2022-11-04T11:41:31.872Z,19.66
2022-11-04T11:43:36.902Z,19.68
2022-11-04T11:45:40.181Z,19.74
2022-11-04T11:47:42.551Z,19.77
2022-11-04T11:49:44.890Z,19.74
2022-11-04T11:51:47.021Z,19.83
2022-11-04T11:54:13.462Z,19.85
2022-11-04T11:56:45.841Z,19.94
2022-11-04T12:02:07.456Z,20.06
2022-11-04T12:09:16.928Z,20.16
2022-11-04T12:11:49.097Z,20.18
2022-11-04T12:13:57.204Z,20.21
2022-11-04T12:16:31.554Z,20.25
2022-11-04T12:19:01.223Z,20.28
2022-11-04T12:21:21.588Z,20.28
2022-11-04T12:23:55.834Z,20.31
2022-11-04T12:26:02.114Z,20.35
2022-11-04T12:28:10.086Z,20.40
2022-11-04T12:30:24.029Z,20.51
2022-11-04T12:32:30.375Z,20.58
2022-11-04T12:34:54.327Z,20.60
2022-11-04T12:37:04.570Z,20.69
2022-11-04T12:39:28.774Z,20.67
2022-11-04T12:42:06.734Z,20.76
2022-11-04T12:44:07.763Z,20.82
2022-11-04T12:46:16.124Z,20.87
2022-11-04T12:48:55.906Z,20.91
2022-11-04T12:51:08.581Z,20.94
2022-11-04T12:53:16.329Z,20.91
2022-11-04T12:55:30.517Z,20.85
2022-11-04T12:57:46.566Z,20.85
2022-11-04T13:00:10.526Z,20.82
2022-11-04T13:02:38.270Z,20.81
2022-11-04T13:04:47.713Z,20.80
2022-11-04T13:07:28.498Z,20.79
2022-11-04T13:09:38.120Z,20.81
2022-11-04T13:11:45.915Z,20.80
2022-11-04T13:13:57.489Z,20.78
2022-11-04T13:16:09.888Z,20.77
2022-11-04T13:18:17.735Z,20.81
2022-11-04T13:20:36.548Z,20.82
2022-11-04T13:22:39.642Z,20.85
2022-11-04T13:25:00.527Z,20.86
2022-11-04T13:27:15.971Z,20.87
2022-11-04T13:29:21.615Z,20.94
2022-11-04T13:31:33.205Z,20.94
2022-11-04T13:33:54.200Z,20.94
2022-11-04T13:35:56.107Z,21.01
2022-11-04T13:38:16.388Z,21.00
2022-11-04T13:40:27.567Z,21.01
2022-11-04T13:43:21.645Z,21.00
2022-11-04T13:45:23.873Z,21.06
2022-11-04T13:47:34.135Z,21.02
2022-11-04T13:49:37.629Z,21.06
2022-11-04T13:51:43.383Z,21.02
2022-11-04T13:53:51.765Z,21.01
2022-11-04T13:56:09.478Z,21.00
2022-11-04T13:58:28.109Z,20.94
2022-11-04T14:00:32.387Z,20.92
2022-11-04T14:02:41.350Z,20.90
2022-11-04T14:04:44.613Z,20.89
2022-11-04T14:07:02.105Z,20.85
2022-11-04T14:09:29.312Z,20.82
2022-11-04T14:11:34.833Z,20.80
2022-11-04T14:13:46.166Z,20.76
2022-11-04T14:16:09.963Z,20.72
2022-11-04T14:18:30.548Z,20.57
2022-11-04T14:24:16.605Z,20.48
2022-11-04T14:26:23.059Z,20.55
2022-11-04T14:28:30.268Z,20.39
2022-11-04T14:30:50.809Z,20.22
2022-11-04T14:32:58.839Z,20.20
2022-11-04T14:35:04.595Z,20.13
2022-11-04T14:37:15.466Z,20.00
2022-11-04T14:39:24.566Z,19.93
2022-11-04T14:41:29.594Z,19.89
2022-11-04T14:43:35.342Z,19.87
2022-11-04T14:45:40.221Z,19.76
2022-11-04T14:47:43.563Z,19.70
2022-11-04T14:49:52.875Z,19.64
2022-11-04T14:51:55.463Z,19.56
2022-11-04T14:54:08.729Z,19.49
2022-11-04T14:56:23.917Z,19.35
2022-11-04T14:58:28.392Z,19.32
2022-11-04T15:00:34.290Z,19.21
2022-11-04T15:02:36.780Z,19.15
2022-11-04T15:04:45.509Z,19.11
2022-11-04T15:07:04.251Z,19.00
2022-11-04T15:09:20.620Z,18.91
2022-11-04T15:11:58.328Z,18.87
2022-11-04T15:14:00.938Z,18.83
2022-11-04T15:16:11.168Z,18.74
2022-11-04T15:18:24.143Z,18.68
2022-11-04T15:20:31.710Z,18.66
2022-11-04T15:22:34.281Z,18.60
2022-11-04T15:24:37.749Z,18.55
2022-11-04T15:26:40.905Z,18.48
2022-11-04T15:28:48.668Z,18.39
2022-11-04T15:31:21.058Z,18.28
2022-11-04T15:33:25.437Z,18.27
2022-11-04T15:35:31.513Z,18.26
2022-11-04T15:37:46.648Z,18.19
2022-11-04T15:39:53.161Z,18.07
2022-11-04T15:42:17.965Z,18.01
2022-11-04T15:44:24.375Z,17.94
2022-11-04T15:46:29.598Z,17.93
2022-11-04T15:48:34.993Z,17.90
2022-11-04T15:50:38.996Z,17.82
2022-11-04T15:52:50.900Z,17.70
2022-11-04T15:54:59.850Z,17.71
2022-11-04T15:57:12.991Z,17.67
2022-11-04T15:59:19.972Z,17.54
2022-11-04T16:01:23.039Z,17.40
2022-11-04T16:03:26.217Z,17.31
2022-11-04T16:05:40.121Z,17.08
2022-11-04T16:07:44.274Z,17.13
2022-11-04T16:09:49.735Z,17.02
2022-11-04T16:12:27.063Z,16.91
2022-11-04T16:14:30.270Z,16.98
2022-11-04T16:16:32.832Z,16.92
2022-11-04T16:18:44.902Z,16.94
2022-11-04T16:20:48.848Z,16.98
2022-11-04T16:23:00.641Z,16.82
2022-11-04T16:25:05.825Z,16.83
2022-11-04T16:27:14.206Z,16.85
2022-11-04T16:29:32.581Z,16.81
2022-11-04T16:31:36.634Z,16.88
2022-11-04T16:33:38.853Z,16.92
2022-11-04T16:35:43.518Z,16.90
2022-11-04T16:37:46.368Z,16.92
2022-11-04T16:39:50.183Z,16.89
2022-11-04T16:41:52.268Z,16.75
2022-11-04T16:43:55.799Z,16.74
2022-11-04T16:45:57.915Z,16.75
2022-11-04T16:48:03.351Z,16.65
2022-11-04T16:50:14.418Z,16.56
2022-11-04T16:52:23.248Z,16.51
2022-11-04T16:54:25.672Z,16.51
2022-11-04T16:56:27.772Z,16.53
2022-11-04T16:58:30.190Z,16.55
2022-11-04T17:00:36.142Z,16.60
2022-11-04T17:02:39.979Z,16.58
2022-11-04T17:04:42.097Z,16.58
2022-11-04T17:06:44.457Z,16.57
2022-11-04T17:08:47.264Z,16.57
2022-11-04T17:10:49.533Z,16.50
2022-11-04T17:12:51.999Z,16.42
2022-11-04T17:14:54.561Z,16.32
2022-11-04T17:16:59.358Z,16.34
2022-11-04T17:19:01.573Z,16.32
2022-11-04T17:21:08.313Z,16.26
2022-11-04T17:23:13.191Z,16.27
2022-11-04T17:25:23.526Z,16.27
2022-11-04T17:27:27.483Z,16.31
2022-11-04T17:29:30.465Z,16.29
2022-11-04T17:31:33.042Z,16.33
2022-11-04T17:33:35.120Z,16.27
2022-11-04T17:35:42.002Z,16.23
2022-11-04T17:37:44.470Z,16.28
2022-11-04T17:39:49.562Z,16.26
2022-11-04T17:42:10.186Z,16.28
2022-11-04T17:44:12.547Z,16.25
2022-11-04T17:46:34.478Z,16.21
2022-11-04T17:48:36.818Z,16.26
2022-11-04T17:50:39.872Z,16.25
2022-11-04T17:52:42.509Z,16.25
2022-11-04T17:54:44.747Z,16.26
2022-11-04T17:56:47.525Z,16.28
2022-11-04T17:58:50.626Z,16.29
2022-11-04T18:00:54.538Z,16.23
2022-11-04T18:02:57.682Z,16.19
2022-11-04T18:05:01.867Z,16.23
2022-11-04T18:07:04.372Z,16.23
2022-11-04T18:09:07.041Z,16.24
2022-11-04T18:11:11.877Z,16.24
2022-11-04T18:13:13.960Z,16.20
2022-11-04T18:15:19.298Z,16.16
2022-11-04T18:17:24.806Z,16.13
2022-11-04T18:20:29.648Z,16.08
2022-11-04T18:22:31.919Z,16.09
2022-11-04T18:24:34.668Z,16.04
2022-11-04T18:26:36.991Z,16.02
2022-11-04T18:28:39.356Z,16.09
2022-11-04T18:30:41.665Z,16.08
2022-11-04T18:32:43.854Z,16.03
2022-11-04T18:34:46.061Z,16.00
2022-11-04T18:36:49.159Z,16.04
2022-11-04T18:38:51.775Z,16.04
2022-11-04T18:40:54.148Z,16.08
2022-11-04T18:42:56.512Z,16.08
2022-11-04T18:44:58.651Z,16.15
2022-11-04T18:47:01.209Z,16.16
2022-11-04T18:49:03.479Z,16.19
2022-11-04T18:51:09.699Z,16.18
2022-11-04T18:53:14.402Z,16.20
2022-11-04T18:55:16.432Z,16.17
2022-11-04T18:57:18.512Z,16.20
2022-11-04T18:59:21.011Z,16.26
2022-11-04T19:01:24.442Z,16.28
2022-11-04T19:03:26.609Z,16.34
2022-11-04T19:05:28.564Z,16.39
2022-11-04T19:07:31.028Z,16.40
2022-11-04T19:09:46.572Z,16.44
2022-11-04T19:12:09.637Z,16.46
2022-11-04T19:14:16.112Z,16.38
2022-11-04T19:16:18.322Z,16.35
2022-11-04T19:18:20.567Z,16.38
2022-11-04T19:20:23.775Z,16.45
2022-11-04T19:22:25.914Z,16.42
2022-11-04T19:24:28.693Z,16.43
2022-11-04T19:26:33.715Z,16.42
2022-11-04T19:28:48.141Z,16.31
2022-11-04T19:31:03.313Z,16.36
2022-11-04T19:33:05.515Z,16.45
2022-11-04T19:35:07.826Z,16.44
2022-11-04T19:37:10.956Z,16.39
2022-11-04T19:39:13.266Z,16.36
2022-11-04T19:41:35.598Z,16.38
2022-11-04T19:43:37.503Z,16.41
2022-11-04T19:45:42.447Z,16.44
2022-11-04T19:47:47.055Z,16.45
2022-11-04T19:49:49.168Z,16.40
2022-11-04T19:51:51.822Z,16.45
2022-11-04T19:53:54.814Z,16.44
2022-11-04T19:55:58.793Z,16.45
2022-11-04T19:58:02.059Z,16.51
2022-11-04T20:00:04.872Z,16.56
2022-11-04T20:02:15.401Z,16.60
2022-11-04T20:04:18.555Z,16.57
2022-11-04T20:06:21.548Z,16.62
2022-11-04T20:08:23.775Z,16.63
2022-11-04T20:10:25.752Z,16.55
2022-11-04T20:12:46.258Z,16.58
2022-11-04T20:14:48.474Z,16.59
2022-11-04T20:16:50.484Z,16.59
2022-11-04T20:18:57.082Z,16.53
2022-11-04T20:20:59.062Z,16.53
2022-11-04T20:23:01.696Z,16.52
2022-11-04T20:25:04.810Z,16.50
2022-11-04T20:27:06.950Z,16.50
2022-11-04T20:29:10.280Z,16.52
2022-11-04T20:31:18.160Z,16.57
2022-11-04T20:33:20.187Z,16.56
2022-11-04T20:35:23.077Z,16.58
2022-11-04T20:37:26.217Z,16.61
2022-11-04T20:39:28.130Z,16.57
2022-11-04T20:41:30.444Z,16.63
2022-11-04T20:43:34.655Z,16.70
2022-11-04T20:45:39.386Z,16.71
2022-11-04T20:47:42.418Z,16.71
2022-11-04T20:49:45.203Z,16.71
2022-11-04T20:51:54.634Z,16.76
2022-11-04T20:54:00.790Z,16.77
2022-11-04T20:56:07.707Z,16.72
2022-11-04T20:58:10.055Z,16.79
2022-11-04T21:00:13.191Z,16.82
2022-11-04T21:02:15.257Z,16.82
2022-11-04T21:04:21.653Z,16.83
2022-11-04T21:06:23.703Z,16.83
2022-11-04T21:08:26.578Z,16.86
2022-11-04T21:10:28.550Z,16.91
2022-11-04T21:12:30.658Z,16.89
2022-11-04T21:14:35.330Z,16.89
2022-11-04T21:16:37.509Z,16.85
2022-11-04T21:18:40.278Z,16.83
2022-11-04T21:20:43.427Z,16.89
2022-11-04T21:22:45.629Z,16.89
2022-11-04T21:24:47.684Z,16.83
2022-11-04T21:26:53.289Z,16.83
2022-11-04T21:29:01.702Z,16.80
2022-11-04T21:31:06.958Z,16.86
2022-11-04T21:33:09.338Z,16.88
2022-11-04T21:35:11.315Z,16.80
2022-11-04T21:37:13.700Z,16.81
2022-11-04T21:39:17.856Z,16.78
2022-11-04T21:41:26.051Z,16.75
2022-11-04T21:43:28.344Z,16.72
2022-11-04T21:45:32.829Z,16.72
2022-11-04T21:47:34.858Z,16.71
2022-11-04T21:49:36.729Z,16.69
2022-11-04T21:51:38.705Z,16.67
2022-11-04T21:53:41.183Z,16.66
2022-11-04T21:55:43.870Z,16.71
2022-11-04T21:57:46.052Z,16.75
2022-11-04T21:59:48.075Z,16.75
2022-11-04T22:01:50.248Z,16.74
2022-11-04T22:03:54.754Z,16.80
2022-11-04T22:06:02.181Z,16.82
2022-11-04T22:08:19.978Z,16.75
2022-11-04T22:10:22.935Z,16.70
2022-11-04T22:12:24.951Z,16.72
2022-11-04T22:14:30.720Z,16.76
2022-11-04T22:16:37.427Z,16.73
2022-11-04T22:18:40.190Z,16.73
2022-11-04T22:20:42.762Z,16.73
2022-11-04T22:22:44.900Z,16.74
2022-11-04T22:25:03.195Z,16.69
2022-11-04T22:27:06.850Z,16.68
2022-11-04T22:29:09.918Z,16.64
2022-11-04T22:31:16.812Z,16.64
2022-11-04T22:33:21.104Z,16.67
2022-11-04T22:35:25.582Z,16.61
2022-11-04T22:37:27.634Z,16.62
2022-11-04T22:39:32.655Z,16.63
2022-11-04T22:41:35.727Z,16.62
2022-11-04T22:43:38.032Z,16.63
2022-11-04T22:45:40.107Z,16.66
2022-11-04T22:47:42.298Z,16.71
2022-11-04T22:49:44.417Z,16.65
2022-11-04T22:51:46.850Z,16.61
2022-11-04T22:53:57.695Z,16.55
2022-11-04T22:56:01.953Z,16.55
2022-11-04T22:58:04.170Z,16.61
2022-11-04T23:00:07.650Z,16.58
2022-11-04T23:02:09.903Z,16.60
2022-11-04T23:04:14.255Z,16.63
2022-11-04T23:06:16.461Z,16.64
2022-11-04T23:08:18.512Z,16.65
2022-11-04T23:10:39.189Z,16.76
2022-11-04T23:13:04.204Z,16.79
2022-11-04T23:15:25.427Z,16.81
2022-11-04T23:17:46.019Z,16.80
2022-11-04T23:19:50.720Z,16.71
2022-11-04T23:22:11.457Z,16.78
2022-11-04T23:24:32.310Z,16.75
2022-11-04T23:26:34.487Z,16.79
2022-11-04T23:28:58.220Z,16.76
2022-11-04T23:31:00.393Z,16.75
2022-11-04T23:33:05.229Z,16.75
2022-11-04T23:35:27.838Z,16.81
2022-11-04T23:37:30.272Z,16.78
2022-11-04T23:39:32.384Z,16.80
2022-11-04T23:41:53.359Z,16.77
2022-11-04T23:43:55.467Z,16.79
2022-11-04T23:46:16.225Z,16.81
2022-11-04T23:48:37.190Z,16.81
2022-11-04T23:50:57.989Z,16.76
2022-11-04T23:53:20.311Z,16.77
2022-11-04T23:55:43.866Z,16.80
2022-11-04T23:58:04.655Z,16.74
